Historyczne dane pomiarowe

Dodano dane terminowe – wersja testowa.

Dane z okresu 1951-2019

Wersja bazy: 1.34 [2019-03-16, lista zmian], aktualizacja planowana na 2019-04-15

Dane meteo z obszaru Polski uzyskane na podstawie danych udostępnionych przez Instytut Meteorologii i Gospodarki Wodnej – Państwowy Instytut Badawczy.

 

Wybierz Datę:    

       

TemperaturaWilgotnośćWiatrCiśnienieOpadyŚniegCzas trwania zjawisk
 Stacja t tx tn tng RH VA  wxwx mslp ppp RRR   cm mm wxwxwxwxwxwxwx
1999-08-14 15.5 21.3 9.4 5.3 75.5- 3.3 1.7---- 0.0------------
1999-08-13 13.4 20.4 6.5 0.7 78.0- 5.0 3.0---- 0.0------------
1999-08-12 16.4 21.2 13.7 12.8 67.0- 6.3 3.0---- 0.0------------
1999-08-11 19.5 23.1 15.9 13.6 79.8- 4.7 4.3---- 0.0------------
1999-08-10 20.1 27.8 13.1 8.8 78.5- 5.0 1.0---- 2.0------------
1999-08-09 21.9 30.3 16.1 10.7 75.8- 2.0 3.0---- 0.7------------
1999-08-08 21.9 27.8 15.2 11.8 78.5- 4.7 2.0---- 0.0------------
1999-08-07 20.2 29.5 10.9 6.5 79.3- 4.3 2.7---- 2.0------------
1999-08-06 21.9 27.2 17.5 14.5 67.5- 3.0 3.7---- 0.0------------
1999-08-05 17.5 26.3 8.1 3.3 75.3- 3.3 1.3---- 1.2------------
1999-08-04 17.3 24.9 7.5 3.0 70.5- 2.0 0.7---- 0.0------------
1999-08-03 16.6 22.7 9.2 4.1 75.0- 3.0 2.0---- 0.0------------
1999-08-02 17.1 24.7 8.9 7.2 72.0- 4.3 2.0---- 0.0------------
1999-08-01 16.9 24.8 8.7 3.0 70.3- 4.0 3.3---- 0.0------------
1999-07-31 17.9 25.6 8.1 2.0 62.0- 3.7 4.0---- 0.0------------
1999-07-30 16.9 24.2 6.5 2.0 66.8- 2.0 3.3---- 0.0------------
1999-07-29 17.2 23.9 10.1 4.0 67.3- 3.3 4.3---- 0.0------------
1999-07-28 17.5 24.1 11.0 5.5 68.3- 1.7 4.0---- 0.0------------
1999-07-27 19.3 23.8 16.1 9.2 77.0- 4.7 4.7---- 0.0------------
1999-07-26 19.1 26.0 10.6 4.5 75.8- 3.7 2.3---- 0.0------------
1999-07-25 17.9 24.8 8.2 4.9 41.3- 1.0 0.0---- 0.0------------
1999-07-24 16.1 20.2 12.3 7.2 81.3- 5.7 2.3---- 0.2------------
1999-07-23 15.8 18.8 13.5 12.2 80.8- 7.7 1.3---- 1.4------------
1999-07-22 19.0 23.2 16.9 14.3 76.8- 6.0 4.3---- 0.8------------
1999-07-21 22.4 28.1 18.0 13.5 59.0- 4.0 3.7---- 1.0------------
1999-07-20 21.2 28.1 11.0 6.8 61.0- 0.7 3.0---- 0.0------------
1999-07-19 20.4 27.6 10.1 5.5 65.8- 4.3 1.3---- 0.0------------
1999-07-18 18.2 25.4 8.4 4.6 64.0- 2.0 2.0---- 0.0------------
1999-07-17 17.3 23.0 9.7 6.7 76.0- 2.0 2.0---- 0.0------------
1999-07-16 16.2 21.4 11.6 9.7 74.3- 4.3 2.7---- 0.0------------
1999-07-15 16.1 19.4 14.3 13.0 85.0- 6.0 3.7---- 0.4------------
1999-07-14 20.1 26.3 17.6 16.3 85.0- 6.7 3.7---- 0.4------------
1999-07-13 20.0 24.8 14.0 12.1 82.8- 5.7 2.3---- 10.6------------
1999-07-12 20.4 27.6 14.0 11.1 78.0- 4.3 2.3---- 0.4------------
1999-07-11 19.8 22.3 16.8 14.2 76.8- 5.3 4.7---- 3.9------------
1999-07-10 20.2 24.4 17.3 10.2 79.3- 5.7 6.0---- 0.0------------
1999-07-09 18.2 20.5 15.5 15.3 93.8- 7.7 5.0---- 0.0------------
1999-07-08 17.5 21.0 16.2 10.2 98.3- 8.0 4.0---- 3.3------------
1999-07-07 22.3 28.9 19.0 16.5 87.3- 6.7 4.0---- 43.3------------
1999-07-06 25.5 32.5 16.2 14.8 49.8- 3.3 3.3---- 0.0------------
1999-07-05 24.6 31.7 14.6 10.6 50.5- 2.7 2.7---- 0.0------------
1999-07-04 22.8 30.8 11.1 7.4 55.3- 1.0 2.3---- 0.0------------
1999-07-03 20.9 25.3 16.0 12.6 74.0- 2.3 2.3---- 0.0------------
1999-07-02 18.2 25.3 12.1 9.3 82.3- 6.0 2.3---- 0.1------------
1999-07-01 19.4 26.2 12.2 8.6 74.8- 5.0 2.3---- 0.0------------
1999-06-30 20.5 25.8 10.9 10.6 67.8- 2.7 3.3---- 0.0------------
1999-06-29 19.2 23.8 14.4 12.6 69.8- 2.3 2.3---- 0.0------------
1999-06-28 19.2 27.9 11.0 7.6 69.5- 5.0 3.0---- 2.0------------
1999-06-27 19.4 27.3 9.1 3.6 59.8- 5.3 3.3---- 0.0------------
1999-06-26 15.9 23.7 7.8 3.6 74.0- 4.0 3.3---- 0.0------------
1999-06-25 11.4 17.6 2.3 -0.7 84.0- 5.0 1.7---- 2.7------------
1999-06-24 11.6 16.7 3.5 2.4 76.3- 5.7 2.3---- 0.0------------
1999-06-23 10.4 12.6 7.5 6.8 90.5- 7.3 4.7---- 0.2------------
1999-06-22 10.6 16.4 8.2 7.4 95.0- 8.0 7.7---- 34.3------------
1999-06-21 18.0 22.8 14.5 10.0 76.3- 5.7 4.3---- 31.2------------
1999-06-20 17.0 21.4 12.2 8.7 88.0- 5.0 2.0---- 0.0------------
1999-06-19 14.5 16.7 12.3 12.0 92.5- 8.0 2.7---- 0.1------------
1999-06-18 16.2 18.2 15.0 14.5 97.0- 8.0 3.7---- 18.1------------
1999-06-17 18.1 21.2 16.0 15.7 93.5- 7.0 2.0---- 1.5------------
1999-06-16 16.3 18.6 14.8 12.3 89.8- 7.7 2.7---- 0.0------------
1543.9 ms

 

Źródłem pochodzenia danych jest Instytut Meteorologii i Gospodarki Wodnej – Państwowy Instytut Badawczy. Dane Instytutu Meteorologii i Gospodarki Wodnej – Państwowego Instytutu Badawczego zostały przetworzone.

Dane źródłowe można odnaleźć na stronie https://dane.imgw.pl